Time;durP1;ratioP1;P1;durP2;ratioP2;P2;SDS_P1;SDS_P2;PMS_P1;PMS_P2;Temp;Humidity;BMP_temperature;BMP_pressure;BME280_temperature;BME280_humidity;BME280_pressure;Samples;Min_cycle;Max_cycle;Signal;HPM_P1;HPM_P2
2022/04/12 00:00:44;;;;;;;15.82;11.52;;;8.50;99.90;;;;;;4978611;28;20055;-73
2022/04/12 00:03:10;;;;;;;16.55;12.50;;;8.50;99.90;;;;;;4992883;28;20049;-73
2022/04/12 00:05:37;;;;;;;15.60;12.45;;;8.40;99.90;;;;;;4988584;28;20041;-73
2022/04/12 00:08:04;;;;;;;16.15;12.93;;;8.50;99.90;;;;;;4972544;28;20037;-73
2022/04/12 00:10:31;;;;;;;17.05;12.75;;;8.40;99.90;;;;;;4989878;28;20056;-73
2022/04/12 00:12:58;;;;;;;16.88;12.73;;;8.40;99.90;;;;;;4972596;28;20088;-73
2022/04/12 00:15:24;;;;;;;16.98;12.43;;;8.30;99.90;;;;;;4997755;28;20041;-73
2022/04/12 00:20:35;;;;;;;18.45;13.40;;;8.30;99.90;;;;;;5004909;28;20094;-73
2022/04/12 00:23:01;;;;;;;19.15;12.30;;;8.30;99.90;;;;;;4989200;28;20048;-73
2022/04/12 00:25:28;;;;;;;16.23;12.10;;;8.20;99.90;;;;;;5007670;28;20041;-73
2022/04/12 00:27:55;;;;;;;20.00;13.65;;;8.30;99.90;;;;;;5005896;28;20052;-73
2022/04/12 00:30:23;;;;;;;19.27;12.85;;;8.20;99.90;;;;;;4988583;28;20083;-73
2022/04/12 00:32:52;;;;;;;16.23;12.30;;;8.00;99.90;;;;;;5003639;28;20049;-73
2022/04/12 00:35:23;;;;;;;17.38;13.77;;;8.10;99.90;;;;;;4973657;28;20088;-73
2022/04/12 00:37:51;;;;;;;18.52;12.52;;;8.00;99.90;;;;;;4991846;28;20620;-73
2022/04/12 00:40:18;;;;;;;17.48;14.20;;;8.00;99.90;;;;;;4965566;28;20053;-73
2022/04/12 00:42:45;;;;;;;14.65;11.85;;;7.90;99.90;;;;;;5004165;28;20193;-73
2022/04/12 00:45:11;;;;;;;15.75;12.60;;;8.00;99.90;;;;;;5002562;28;20068;-73
2022/04/12 00:47:39;;;;;;;18.50;13.43;;;8.00;99.90;;;;;;5003097;28;20044;-73
2022/04/12 00:50:06;;;;;;;17.05;12.07;;;8.00;99.90;;;;;;5000161;28;20833;-73
2022/04/12 00:52:37;;;;;;;18.42;13.27;;;8.00;99.90;;;;;;5000363;28;20067;-73
2022/04/12 00:55:06;;;;;;;17.02;12.73;;;7.80;99.90;;;;;;4997056;28;20076;-73
2022/04/12 00:57:32;;;;;;;19.67;13.05;;;7.70;99.90;;;;;;4998118;28;20045;-73
2022/04/12 01:00:05;;;;;;;17.77;13.25;;;7.90;99.90;;;;;;4999475;28;20968;-73
2022/04/12 01:02:32;;;;;;;17.08;13.38;;;7.80;99.90;;;;;;4982355;28;20048;-73
2022/04/12 01:05:03;;;;;;;15.85;12.30;;;7.80;99.90;;;;;;4998549;28;20507;-73
2022/04/12 01:07:30;;;;;;;15.45;12.27;;;7.80;99.90;;;;;;4978722;28;20621;-72
2022/04/12 01:09:56;;;;;;;16.58;12.13;;;7.80;99.90;;;;;;5001048;28;20076;-73
2022/04/12 01:12:22;;;;;;;15.30;12.40;;;7.90;99.90;;;;;;4998325;28;20079;-73
2022/04/12 01:14:49;;;;;;;16.10;12.00;;;7.80;99.90;;;;;;5000904;28;20063;-73
2022/04/12 01:17:17;;;;;;;17.45;12.02;;;7.80;99.90;;;;;;5003024;28;20041;-73
2022/04/12 01:19:43;;;;;;;17.00;12.30;;;7.80;99.90;;;;;;4989849;28;20586;-73
2022/04/12 01:22:15;;;;;;;16.20;12.60;;;7.70;99.90;;;;;;5005381;28;20049;-73
2022/04/12 01:24:41;;;;;;;16.95;11.77;;;7.70;99.90;;;;;;5005769;28;20041;-73
2022/04/12 01:27:07;;;;;;;16.75;12.27;;;7.90;99.90;;;;;;5008968;28;20077;-73
2022/04/12 01:29:35;;;;;;;17.63;12.18;;;7.80;99.90;;;;;;4991610;28;20564;-73
2022/04/12 01:32:01;;;;;;;16.42;12.75;;;7.70;99.90;;;;;;5008351;28;20053;-73
2022/04/12 01:34:28;;;;;;;17.83;12.23;;;7.70;99.90;;;;;;5005650;28;20080;-73
2022/04/12 01:36:54;;;;;;;16.83;11.95;;;7.70;99.90;;;;;;4989791;28;20055;-73
2022/04/12 01:39:20;;;;;;;16.63;11.63;;;7.50;99.90;;;;;;4984352;28;20067;-73
2022/04/12 01:41:46;;;;;;;16.33;12.15;;;7.40;99.90;;;;;;4993298;28;20578;-73
2022/04/12 01:44:12;;;;;;;16.23;12.63;;;7.50;99.90;;;;;;5003567;28;20077;-73
2022/04/12 01:46:38;;;;;;;15.38;11.68;;;7.50;99.90;;;;;;5013003;28;20087;-73
2022/04/12 01:49:04;;;;;;;17.20;12.35;;;7.40;99.90;;;;;;4984699;28;20041;-73
2022/04/12 01:51:30;;;;;;;15.82;12.40;;;7.50;99.90;;;;;;5005508;28;20077;-73
2022/04/12 01:53:56;;;;;;;15.63;12.30;;;7.30;99.90;;;;;;4988144;28;20176;-73
2022/04/12 01:56:22;;;;;;;15.90;12.40;;;7.30;99.90;;;;;;4986151;28;20049;-73
2022/04/12 01:58:47;;;;;;;15.32;12.25;;;7.20;99.90;;;;;;5005025;28;20049;-73
2022/04/12 02:01:13;;;;;;;16.42;12.65;;;7.20;99.90;;;;;;5004333;28;20408;-73
2022/04/12 02:03:39;;;;;;;16.60;12.23;;;7.20;99.90;;;;;;4986894;28;21660;-73
2022/04/12 02:06:05;;;;;;;16.23;12.18;;;7.10;99.90;;;;;;5006196;28;20045;-73
2022/04/12 02:08:31;;;;;;;17.98;12.95;;;7.20;99.90;;;;;;4984109;28;20041;-73
2022/04/12 02:10:57;;;;;;;17.90;12.57;;;7.20;99.90;;;;;;4987083;28;20517;-73
2022/04/12 02:13:23;;;;;;;20.17;12.77;;;7.20;99.90;;;;;;4987740;28;20699;-73
2022/04/12 02:15:49;;;;;;;16.15;12.68;;;7.20;99.90;;;;;;5006685;28;20045;-73
2022/04/12 02:18:14;;;;;;;14.70;12.07;;;7.20;99.90;;;;;;4988938;28;20135;-73
2022/04/12 02:20:40;;;;;;;18.00;12.05;;;7.20;99.90;;;;;;5007822;28;20045;-73
2022/04/12 02:23:06;;;;;;;15.82;11.63;;;7.10;99.90;;;;;;4990183;28;21019;-73
2022/04/12 02:25:32;;;;;;;17.23;12.32;;;7.10;99.90;;;;;;5005582;28;20040;-74
2022/04/12 02:27:58;;;;;;;16.00;12.45;;;7.00;99.90;;;;;;5000725;28;20069;-73
2022/04/12 02:30:24;;;;;;;17.30;12.52;;;7.00;99.90;;;;;;5003902;28;20054;-73
2022/04/12 02:32:50;;;;;;;14.95;12.43;;;7.10;99.90;;;;;;5003881;28;20106;-73
2022/04/12 02:35:16;;;;;;;16.23;12.50;;;7.20;99.90;;;;;;4985596;28;20052;-73
2022/04/12 02:37:41;;;;;;;14.82;11.75;;;7.00;99.90;;;;;;4982724;28;20511;-73
2022/04/12 02:40:07;;;;;;;16.23;12.20;;;6.90;99.90;;;;;;5000918;28;20068;-73
2022/04/12 02:42:33;;;;;;;15.50;12.85;;;7.10;99.90;;;;;;5002508;28;20077;-73
2022/04/12 02:44:59;;;;;;;13.90;11.00;;;7.00;99.90;;;;;;4969503;28;20125;-73
2022/04/12 02:47:26;;;;;;;16.52;12.23;;;6.80;99.90;;;;;;5009530;28;20084;-73
2022/04/12 02:49:55;;;;;;;18.83;13.13;;;6.90;99.90;;;;;;4990547;28;20053;-73
2022/04/12 02:52:21;;;;;;;16.23;12.95;;;7.00;99.90;;;;;;5002460;28;20103;-73
2022/04/12 02:54:47;;;;;;;19.05;12.88;;;7.00;99.90;;;;;;5006952;28;20111;-73
2022/04/12 02:57:13;;;;;;;18.75;12.80;;;7.00;99.90;;;;;;5001526;28;20785;-73
2022/04/12 02:59:38;;;;;;;19.52;12.85;;;6.90;99.90;;;;;;5012188;28;20124;-73
2022/04/12 03:02:05;;;;;;;14.40;12.10;;;6.90;99.90;;;;;;5005058;28;20049;-73
2022/04/12 03:04:31;;;;;;;16.15;12.18;;;6.90;99.90;;;;;;5008785;28;20148;-73
2022/04/12 03:06:56;;;;;;;15.93;12.82;;;6.90;99.90;;;;;;5014921;28;20045;-73
2022/04/12 03:09:22;;;;;;;17.40;13.55;;;6.70;99.90;;;;;;5008912;28;20052;-73
2022/04/12 03:11:48;;;;;;;16.40;11.88;;;6.80;99.90;;;;;;5008746;28;20052;-73
2022/04/12 03:14:14;;;;;;;14.63;12.23;;;6.80;99.90;;;;;;5012133;28;20048;-73
2022/04/12 03:16:42;;;;;;;15.45;11.77;;;6.70;99.90;;;;;;5009158;28;20044;-73
2022/04/12 03:19:08;;;;;;;15.95;12.15;;;6.60;99.90;;;;;;4993823;28;20064;-72
2022/04/12 03:21:34;;;;;;;15.90;11.57;;;6.70;99.90;;;;;;5014393;28;20076;-72
2022/04/12 03:24:00;;;;;;;17.42;12.18;;;6.70;99.90;;;;;;4990349;28;20052;-72
2022/04/12 03:26:26;;;;;;;16.05;11.77;;;6.70;99.90;;;;;;5007990;28;20045;-73
2022/04/12 03:28:52;;;;;;;16.73;11.98;;;6.70;99.90;;;;;;5010151;28;20061;-73
2022/04/12 03:31:18;;;;;;;16.27;12.48;;;6.60;99.90;;;;;;5006406;28;20691;-73
2022/04/12 03:33:46;;;;;;;17.67;12.93;;;6.70;99.90;;;;;;5009535;28;20053;-73
2022/04/12 03:36:12;;;;;;;17.13;12.15;;;6.70;99.90;;;;;;4988515;28;20057;-73
2022/04/12 03:38:47;;;;;;;15.43;12.07;;;6.70;99.90;;;;;;5009401;28;20514;-73
2022/04/12 03:41:18;;;;;;;18.10;12.35;;;6.70;99.90;;;;;;4986387;28;20573;-72
2022/04/12 03:43:45;;;;;;;15.75;11.50;;;6.80;99.90;;;;;;4988762;28;20061;-73
2022/04/12 03:46:11;;;;;;;15.30;11.88;;;6.90;99.90;;;;;;5002624;28;20056;-73
2022/04/12 03:48:37;;;;;;;15.55;12.38;;;6.90;99.90;;;;;;5005512;28;20049;-73
2022/04/12 03:51:03;;;;;;;14.10;10.80;;;6.80;99.90;;;;;;5007927;28;20937;-73
2022/04/12 03:53:28;;;;;;;14.85;10.95;;;6.80;99.90;;;;;;4991994;28;20060;-73
2022/04/12 03:55:55;;;;;;;17.08;11.40;;;6.80;99.90;;;;;;5006762;28;20717;-73
2022/04/12 03:58:22;;;;;;;14.95;12.18;;;6.80;99.90;;;;;;5008322;28;20045;-73
2022/04/12 04:00:48;;;;;;;13.70;10.77;;;6.80;99.90;;;;;;5009771;28;20059;-72
2022/04/12 04:03:17;;;;;;;13.85;10.88;;;7.00;99.90;;;;;;5005423;28;20154;-73
2022/04/12 04:05:44;;;;;;;14.05;10.88;;;7.00;99.90;;;;;;4992961;28;20037;-73
2022/04/12 04:08:10;;;;;;;14.05;10.32;;;6.90;99.90;;;;;;5005689;28;20294;-72
2022/04/12 04:10:36;;;;;;;15.52;10.93;;;7.00;99.90;;;;;;5010277;28;20087;-73
2022/04/12 04:13:08;;;;;;;15.13;11.00;;;7.00;99.90;;;;;;5000870;28;20049;-73
2022/04/12 04:15:36;;;;;;;13.52;10.55;;;6.90;99.90;;;;;;5005612;28;20045;-73
2022/04/12 04:18:02;;;;;;;13.85;10.50;;;7.00;99.90;;;;;;5002867;28;20071;-73
2022/04/12 04:20:28;;;;;;;15.10;11.10;;;7.00;99.90;;;;;;4988669;28;20046;-72
2022/04/12 04:22:54;;;;;;;16.95;11.25;;;6.90;99.90;;;;;;4990272;28;20104;-73
2022/04/12 04:25:20;;;;;;;15.35;11.02;;;6.80;99.90;;;;;;4987940;28;20053;-73
2022/04/12 04:27:46;;;;;;;17.23;10.32;;;6.90;99.90;;;;;;5001141;28;20049;-73
2022/04/12 04:30:13;;;;;;;15.30;10.85;;;6.80;99.90;;;;;;5009246;28;20046;-73
2022/04/12 04:32:40;;;;;;;14.75;10.70;;;6.80;99.90;;;;;;5011885;28;20045;-72
2022/04/12 04:35:06;;;;;;;13.95;10.55;;;6.90;99.90;;;;;;5004263;28;20130;-73
2022/04/12 04:37:40;;;;;;;14.40;10.75;;;6.80;99.90;;;;;;4989370;28;20053;-73
2022/04/12 04:40:06;;;;;;;18.70;11.57;;;6.90;99.90;;;;;;5001891;28;20077;-73
2022/04/12 04:42:33;;;;;;;13.38;10.57;;;6.70;99.90;;;;;;5010746;28;20088;-72
2022/04/12 04:44:59;;;;;;;14.18;10.77;;;6.60;99.90;;;;;;4968011;28;20524;-73
2022/04/12 04:47:24;;;;;;;16.35;11.38;;;6.60;99.90;;;;;;5007420;28;20079;-72
2022/04/12 04:49:51;;;;;;;15.13;11.55;;;6.60;99.90;;;;;;4990066;28;20045;-73
2022/04/12 04:52:16;;;;;;;16.90;11.55;;;6.50;99.90;;;;;;5006576;28;20073;-73
2022/04/12 04:54:42;;;;;;;16.73;11.40;;;6.50;99.90;;;;;;4987132;28;20128;-72
2022/04/12 04:57:08;;;;;;;14.13;11.50;;;6.60;99.90;;;;;;4969366;28;20065;-72
2022/04/12 04:59:34;;;;;;;18.15;11.70;;;6.60;99.90;;;;;;4987008;28;20065;-72
2022/04/12 05:02:00;;;;;;;13.38;10.73;;;6.50;99.90;;;;;;5006422;28;20045;-72
2022/04/12 05:04:25;;;;;;;15.60;11.25;;;6.60;99.90;;;;;;4989956;28;20376;-72
2022/04/12 05:06:51;;;;;;;15.68;11.55;;;6.50;99.90;;;;;;4992396;28;20380;-72
2022/04/12 05:09:17;;;;;;;17.92;11.98;;;6.50;99.90;;;;;;5004203;28;20130;-72
2022/04/12 05:11:43;;;;;;;13.60;11.57;;;6.50;99.90;;;;;;5009937;28;20045;-72
2022/04/12 05:14:09;;;;;;;15.27;10.85;;;6.50;99.90;;;;;;5004983;28;20070;-72
2022/04/12 05:16:35;;;;;;;15.15;10.95;;;6.60;99.90;;;;;;5008074;28;20057;-72
2022/04/12 05:19:00;;;;;;;15.45;11.45;;;6.50;99.90;;;;;;5006959;28;20041;-72
2022/04/12 05:21:26;;;;;;;16.90;11.73;;;6.50;99.90;;;;;;5004654;28;20052;-72
2022/04/12 05:23:52;;;;;;;15.88;11.85;;;6.50;99.90;;;;;;4990862;28;20057;-72
2022/04/12 05:26:18;;;;;;;16.92;11.73;;;6.50;99.90;;;;;;4998328;28;20712;-72
2022/04/12 05:28:44;;;;;;;15.57;11.60;;;6.50;99.90;;;;;;5003009;28;20975;-72
2022/04/12 05:31:10;;;;;;;16.25;12.02;;;6.50;99.90;;;;;;5003400;28;20096;-72
2022/04/12 05:33:36;;;;;;;15.80;11.98;;;6.50;99.90;;;;;;4971438;28;20674;-73
2022/04/12 05:36:01;;;;;;;14.55;11.60;;;6.60;99.90;;;;;;5001459;28;20043;-73
2022/04/12 05:38:27;;;;;;;17.63;12.00;;;6.70;99.90;;;;;;5010386;28;20052;-71
2022/04/12 05:40:54;;;;;;;26.52;12.40;;;6.80;99.90;;;;;;5003506;28;20049;-71
2022/04/12 05:43:20;;;;;;;15.15;11.90;;;7.10;99.90;;;;;;5008491;28;20045;-72
2022/04/12 05:45:46;;;;;;;17.02;11.60;;;7.40;99.90;;;;;;5006684;28;20464;-73
2022/04/12 05:48:12;;;;;;;16.02;11.45;;;8.10;99.90;;;;;;5009597;28;20049;-73
2022/04/12 05:50:38;;;;;;;17.52;12.10;;;8.60;99.90;;;;;;5011008;28;20053;-73
2022/04/12 05:53:04;;;;;;;15.77;11.27;;;8.60;99.90;;;;;;4988715;28;21129;-73
2022/04/12 05:55:30;;;;;;;15.30;10.50;;;8.20;99.90;;;;;;4988437;28;20152;-72
2022/04/12 05:58:03;;;;;;;14.73;11.82;;;8.00;99.90;;;;;;5006072;28;20048;-73
2022/04/12 06:00:33;;;;;;;14.93;10.38;;;8.20;99.90;;;;;;5008750;28;20041;-73
2022/04/12 06:02:59;;;;;;;16.08;11.23;;;8.20;99.90;;;;;;4977667;28;20060;-72
2022/04/12 06:05:32;;;;;;;20.02;10.85;;;8.30;99.90;;;;;;5007364;28;20045;-72
2022/04/12 06:07:59;;;;;;;13.25;10.30;;;8.30;99.90;;;;;;5008404;28;20052;-73
2022/04/12 06:10:26;;;;;;;17.75;10.80;;;8.30;99.90;;;;;;4989627;28;20058;-72
2022/04/12 06:12:51;;;;;;;19.08;11.23;;;8.50;99.90;;;;;;4985655;28;20402;-72
2022/04/12 06:15:19;;;;;;;17.67;10.27;;;8.60;99.90;;;;;;5008006;28;20041;-72
2022/04/12 06:17:45;;;;;;;17.80;10.75;;;8.50;99.90;;;;;;4987675;28;20049;-73
2022/04/12 06:20:16;;;;;;;17.10;10.15;;;8.60;99.90;;;;;;5006150;28;20100;-74
2022/04/12 06:22:43;;;;;;;19.40;11.20;;;8.60;99.90;;;;;;5012474;28;20055;-73
2022/04/12 06:25:11;;;;;;;15.70;10.50;;;8.70;99.90;;;;;;5006689;28;20041;-73
2022/04/12 06:27:40;;;;;;;13.35;9.85;;;8.60;99.90;;;;;;4979014;28;20152;-73
2022/04/12 06:30:12;;;;;;;16.55;10.43;;;8.60;99.90;;;;;;5008084;28;20544;-75
2022/04/12 06:32:38;;;;;;;13.30;9.98;;;8.70;99.90;;;;;;4995651;28;20046;-73
2022/04/12 06:35:06;;;;;;;13.05;9.10;;;8.70;99.90;;;;;;4991460;28;20495;-74
2022/04/12 06:37:33;;;;;;;14.43;10.60;;;8.70;99.90;;;;;;5011661;28;20044;-74
2022/04/12 06:39:59;;;;;;;15.95;10.25;;;8.70;99.90;;;;;;5011231;28;20053;-74
2022/04/12 06:42:26;;;;;;;22.55;10.88;;;8.80;99.90;;;;;;5015267;28;20136;-73
2022/04/12 06:44:52;;;;;;;15.38;10.48;;;8.80;99.90;;;;;;5009752;28;20054;-73
2022/04/12 06:47:18;;;;;;;13.32;9.88;;;8.80;99.90;;;;;;5012891;28;20055;-74
2022/04/12 06:49:49;;;;;;;19.98;10.30;;;8.90;99.90;;;;;;5007111;28;20768;-73
2022/04/12 06:52:16;;;;;;;23.40;11.45;;;9.00;99.90;;;;;;4982539;28;20045;-73
2022/04/12 06:54:42;;;;;;;17.05;10.52;;;9.00;99.90;;;;;;5011180;28;20407;-74
2022/04/12 06:57:09;;;;;;;14.80;10.70;;;9.00;99.90;;;;;;4973815;28;20041;-74
2022/04/12 06:59:35;;;;;;;15.45;10.30;;;9.00;99.90;;;;;;5004828;28;20067;-73
2022/04/12 07:02:01;;;;;;;12.98;10.05;;;9.00;99.90;;;;;;5008878;28;20072;-73
2022/04/12 07:04:28;;;;;;;16.08;10.90;;;9.00;99.90;;;;;;4989997;28;20060;-73
2022/04/12 07:06:56;;;;;;;14.07;10.32;;;9.00;99.90;;;;;;5001786;28;20116;-73
2022/04/12 07:09:31;;;;;;;15.15;10.23;;;9.10;99.90;;;;;;5004369;28;20290;-72
2022/04/12 07:11:59;;;;;;;13.40;9.98;;;9.20;99.90;;;;;;5005090;28;20167;-73
2022/04/12 07:14:26;;;;;;;15.40;10.43;;;9.40;99.90;;;;;;5009339;28;20108;-73
2022/04/12 07:16:52;;;;;;;13.15;9.63;;;9.80;99.90;;;;;;5002874;28;20176;-73
2022/04/12 07:19:18;;;;;;;16.98;9.75;;;9.90;99.90;;;;;;4988653;28;20051;-73
2022/04/12 07:21:44;;;;;;;15.52;9.63;;;10.20;99.90;;;;;;5006230;28;20080;-73
2022/04/12 07:24:10;;;;;;;17.92;10.20;;;10.40;99.90;;;;;;5007947;28;20058;-73
2022/04/12 07:26:37;;;;;;;14.32;9.70;;;10.40;99.90;;;;;;5001388;28;21865;-73
2022/04/12 07:29:05;;;;;;;15.43;9.55;;;10.70;99.90;;;;;;5007754;28;20053;-73
2022/04/12 07:31:31;;;;;;;13.88;10.10;;;11.00;99.90;;;;;;5006133;28;20895;-74
2022/04/12 07:33:57;;;;;;;14.25;9.52;;;10.90;99.90;;;;;;4975430;28;20064;-73
2022/04/12 07:36:23;;;;;;;12.68;9.35;;;10.80;99.90;;;;;;4987820;28;20049;-74
2022/04/12 07:38:49;;;;;;;14.73;9.63;;;11.00;99.90;;;;;;4987614;28;20053;-73
2022/04/12 07:41:18;;;;;;;13.57;9.65;;;11.50;99.90;;;;;;4993165;28;20118;-73
2022/04/12 07:43:45;;;;;;;14.18;9.75;;;11.80;99.90;;;;;;4978072;28;20070;-74
2022/04/12 07:46:12;;;;;;;15.65;9.48;;;11.50;99.90;;;;;;4994797;28;20040;-74
2022/04/12 07:48:42;;;;;;;16.20;9.93;;;11.60;99.90;;;;;;4977750;28;20052;-73
2022/04/12 07:51:08;;;;;;;13.38;9.90;;;11.80;99.90;;;;;;4998737;28;20037;-74
2022/04/12 07:53:35;;;;;;;12.93;10.38;;;11.90;99.90;;;;;;5007430;28;20056;-74
2022/04/12 07:56:01;;;;;;;16.98;9.88;;;11.70;99.90;;;;;;4971500;28;20533;-74
2022/04/12 07:58:27;;;;;;;18.88;10.20;;;11.90;99.90;;;;;;4988193;28;20159;-74
2022/04/12 08:00:52;;;;;;;16.90;9.70;;;11.80;99.90;;;;;;5005878;28;20045;-74
2022/04/12 08:03:21;;;;;;;14.65;9.65;;;12.20;99.90;;;;;;4998857;28;20482;-73
2022/04/12 08:05:50;;;;;;;12.55;9.57;;;12.40;99.90;;;;;;5000039;28;20052;-74
2022/04/12 08:08:17;;;;;;;12.85;8.55;;;12.70;99.90;;;;;;4993999;28;20057;-74
2022/04/12 08:10:43;;;;;;;15.20;9.30;;;12.40;99.90;;;;;;4999957;28;20047;-73
2022/04/12 08:13:08;;;;;;;13.70;9.27;;;12.50;99.90;;;;;;5005252;28;20455;-73
2022/04/12 08:15:34;;;;;;;13.40;9.40;;;12.50;99.90;;;;;;5006280;28;20052;-74
2022/04/12 08:18:00;;;;;;;14.05;9.20;;;12.90;99.90;;;;;;4992324;28;20048;-74
2022/04/12 08:20:26;;;;;;;12.15;9.10;;;12.70;99.90;;;;;;5009871;28;20053;-74
2022/04/12 08:22:52;;;;;;;12.75;8.98;;;13.10;99.90;;;;;;4978951;28;20045;-74
2022/04/12 08:25:18;;;;;;;18.15;9.60;;;13.70;99.90;;;;;;5005085;28;20060;-74
2022/04/12 08:27:45;;;;;;;13.35;9.35;;;13.80;99.90;;;;;;4989110;28;20068;-74
2022/04/12 08:30:12;;;;;;;13.32;8.80;;;13.90;99.90;;;;;;5006224;28;20089;-75
2022/04/12 08:32:38;;;;;;;13.25;8.98;;;13.30;99.90;;;;;;5009344;28;20056;-74
2022/04/12 08:35:05;;;;;;;13.30;9.30;;;13.40;99.90;;;;;;5003831;28;20069;-73
2022/04/12 08:37:31;;;;;;;13.38;8.85;;;13.90;99.90;;;;;;5004270;28;20048;-74
2022/04/12 08:39:56;;;;;;;11.60;8.80;;;13.50;99.90;;;;;;5006595;28;20050;-74
2022/04/12 08:42:22;;;;;;;12.27;9.18;;;14.10;99.90;;;;;;5003652;28;20051;-74
2022/04/12 08:44:49;;;;;;;11.93;8.95;;;14.20;99.90;;;;;;5007473;28;20416;-74
2022/04/12 08:47:18;;;;;;;12.00;8.85;;;13.90;96.00;;;;;;4987973;28;20052;-73
2022/04/12 08:49:44;;;;;;;11.82;8.60;;;14.20;99.90;;;;;;5001984;28;20033;-74
2022/04/12 08:52:12;;;;;;;14.23;9.00;;;14.20;99.90;;;;;;5007141;28;20099;-74
2022/04/12 08:54:45;;;;;;;13.07;8.32;;;14.10;99.90;;;;;;5010770;28;20041;-74
2022/04/12 08:57:12;;;;;;;21.13;9.40;;;14.30;99.90;;;;;;5003850;28;20103;-75
2022/04/12 08:59:39;;;;;;;13.05;8.93;;;14.60;99.90;;;;;;5006857;28;20056;-74
2022/04/12 09:02:09;;;;;;;12.63;8.82;;;14.50;99.90;;;;;;5001522;28;20041;-74
2022/04/12 09:04:35;;;;;;;13.20;9.15;;;14.40;96.60;;;;;;4993211;28;20052;-75
2022/04/12 09:07:05;;;;;;;11.75;7.97;;;15.00;99.90;;;;;;4996937;28;20060;-75
2022/04/12 09:09:31;;;;;;;11.23;7.60;;;15.00;99.90;;;;;;4997485;28;20060;-74
2022/04/12 09:12:02;;;;;;;12.32;7.80;;;15.10;94.70;;;;;;5007707;28;20076;-74
2022/04/12 09:14:44;;;;;;;12.50;7.90;;;15.70;99.90;;;;;;4988394;28;20049;-74
2022/04/12 09:17:13;;;;;;;11.25;8.20;;;15.30;90.70;;;;;;5000437;28;20130;-74
2022/04/12 09:19:46;;;;;;;10.77;7.70;;;15.20;85.70;;;;;;5004153;28;20051;-75
2022/04/12 09:22:20;;;;;;;;;;;15.30;91.30;;;;;;5002119;28;20047;-74
2022/04/12 09:24:51;;;;;;;11.65;8.07;;;15.30;93.00;;;;;;5005220;28;19932;-74
2022/04/12 09:27:23;;;;;;;12.88;8.10;;;15.90;99.90;;;;;;4997117;28;20057;-74
2022/04/12 09:29:51;;;;;;;11.15;7.85;;;15.40;85.90;;;;;;5006524;28;20057;-75
2022/04/12 09:32:22;;;;;;;11.98;7.97;;;15.70;90.70;;;;;;5001014;28;20060;-74
2022/04/12 09:34:48;;;;;;;10.15;7.22;;;15.80;87.00;;;;;;5002769;28;20049;-74
2022/04/12 09:37:17;;;;;;;12.82;7.68;;;16.20;94.40;;;;;;4990134;28;20049;-74
2022/04/12 09:40:02;;;;;;;12.02;7.70;;;16.20;88.40;;;;;;4995622;28;20052;-75
2022/04/12 09:42:51;;;;;;;13.57;8.10;;;16.00;92.20;;;;;;5006281;28;20042;-75
2022/04/12 09:45:17;;;;;;;13.63;9.00;;;16.00;88.90;;;;;;4989625;28;20052;-74
2022/04/12 09:47:44;;;;;;;11.70;7.90;;;16.30;98.20;;;;;;5013136;28;20240;-74
2022/04/12 09:50:10;;;;;;;12.55;8.10;;;16.60;88.00;;;;;;5010479;28;20041;-75
2022/04/12 09:52:38;;;;;;;11.93;8.00;;;16.10;86.60;;;;;;5011018;28;20092;-74
2022/04/12 09:55:06;;;;;;;12.88;7.88;;;16.90;86.20;;;;;;5005609;28;20333;-76
2022/04/12 09:57:33;;;;;;;13.70;8.35;;;16.10;83.70;;;;;;5008698;28;20080;-75
2022/04/12 09:59:59;;;;;;;13.95;8.07;;;16.10;84.40;;;;;;4994034;28;20052;-75
2022/04/12 10:02:27;;;;;;;16.65;7.93;;;16.10;88.30;;;;;;5010789;28;20057;-75
2022/04/12 10:04:54;;;;;;;14.18;8.07;;;16.10;77.90;;;;;;5009596;28;20042;-75
2022/04/12 10:07:22;;;;;;;14.48;7.90;;;16.00;82.70;;;;;;4993432;28;20049;-75
2022/04/12 10:09:51;;;;;;;11.73;7.90;;;16.40;84.70;;;;;;5009458;28;20501;-75
2022/04/12 10:12:18;;;;;;;13.10;8.52;;;16.60;90.80;;;;;;4993772;28;20051;-75
2022/04/12 10:14:47;;;;;;;13.02;8.05;;;16.50;80.80;;;;;;5006691;28;20710;-75
2022/04/12 10:17:14;;;;;;;12.55;8.35;;;16.40;87.40;;;;;;5011525;28;20089;-75
2022/04/12 10:19:41;;;;;;;13.43;7.88;;;16.90;79.20;;;;;;5006691;28;20102;-74
2022/04/12 10:22:07;;;;;;;13.18;7.90;;;17.00;85.60;;;;;;5008237;28;20071;-75
2022/04/12 10:24:34;;;;;;;13.77;8.60;;;16.80;84.60;;;;;;5005715;28;20045;-74
2022/04/12 10:27:01;;;;;;;11.80;8.10;;;16.80;78.90;;;;;;4982418;28;20135;-74
2022/04/12 10:29:27;;;;;;;11.65;8.15;;;17.20;85.90;;;;;;4976130;28;20065;-73
2022/04/12 10:31:56;;;;;;;12.75;8.13;;;17.60;90.20;;;;;;4970870;28;20939;-74
2022/04/12 10:34:22;;;;;;;13.20;8.45;;;16.80;82.10;;;;;;4975564;28;20092;-73
2022/04/12 10:37:00;;;;;;;13.30;8.13;;;16.90;83.30;;;;;;4973481;28;20582;-74
2022/04/12 10:39:48;;;;;;;12.73;8.40;;;16.80;77.60;;;;;;4975370;28;20049;-74
2022/04/12 10:42:19;;;;;;;14.27;8.65;;;17.20;84.20;;;;;;4971839;28;20783;-73
2022/04/12 10:44:50;;;;;;;12.45;8.70;;;18.00;81.40;;;;;;4964691;28;20099;-74
2022/04/12 10:47:32;;;;;;;11.60;8.00;;;17.70;77.80;;;;;;4965802;28;20111;-75
2022/04/12 10:50:19;;;;;;;14.95;8.40;;;17.60;81.40;;;;;;4972298;28;20077;-74
2022/04/12 10:52:50;;;;;;;14.07;8.50;;;17.50;81.10;;;;;;4979356;28;20050;-74
2022/04/12 10:55:37;;;;;;;11.75;8.25;;;17.90;80.60;;;;;;4986242;28;20042;-74
2022/04/12 10:58:29;;;;;;;11.70;8.38;;;17.70;75.00;;;;;;4984598;28;20046;-75
2022/04/12 11:00:55;;;;;;;14.15;8.63;;;18.00;87.00;;;;;;4986323;28;20037;-74
2022/04/12 11:03:40;;;;;;;14.38;8.60;;;17.70;74.00;;;;;;4978889;28;20132;-74
2022/04/12 11:06:27;;;;;;;14.35;8.93;;;18.60;76.40;;;;;;4985174;28;20054;-73
2022/04/12 11:09:16;;;;;;;13.60;8.77;;;18.80;77.10;;;;;;4979077;28;20053;-74
2022/04/12 11:11:44;;;;;;;13.68;8.32;;;18.60;79.30;;;;;;4983820;28;20099;-75
2022/04/12 11:14:25;;;;;;;15.40;8.77;;;18.00;74.70;;;;;;4979969;28;20109;-74
2022/04/12 11:16:59;;;;;;;14.07;9.60;;;18.40;79.70;;;;;;4983565;28;20056;-74
2022/04/12 11:19:25;;;;;;;12.48;8.50;;;18.70;81.90;;;;;;4981631;28;20178;-74
2022/04/12 11:21:55;;;;;;;15.32;8.88;;;18.70;76.00;;;;;;4985873;28;20049;-74
2022/04/12 11:24:22;;;;;;;13.23;9.02;;;18.70;79.40;;;;;;4982307;28;20061;-74
2022/04/12 11:27:09;;;;;;;13.88;8.85;;;18.70;77.90;;;;;;4999705;28;20385;-74
2022/04/12 11:29:37;;;;;;;13.25;8.57;;;19.60;75.00;;;;;;5001776;28;20428;-74
2022/04/12 11:32:04;;;;;;;12.60;9.02;;;19.30;76.80;;;;;;4984977;28;20041;-74
2022/04/12 11:34:31;;;;;;;13.57;8.52;;;20.00;76.50;;;;;;4978197;28;20045;-74
2022/04/12 11:37:03;;;;;;;14.32;9.18;;;20.40;78.50;;;;;;4977339;28;20108;-74
2022/04/12 11:39:38;;;;;;;12.65;8.90;;;19.80;71.90;;;;;;4981417;28;20042;-73
2022/04/12 11:42:09;;;;;;;14.65;8.40;;;20.20;70.80;;;;;;4988026;28;20157;-75
2022/04/12 11:44:36;;;;;;;12.95;8.50;;;20.60;73.60;;;;;;4978403;28;20042;-74
2022/04/12 11:47:07;;;;;;;13.80;8.20;;;20.50;76.10;;;;;;4985157;28;20041;-74
2022/04/12 11:49:38;;;;;;;11.68;7.47;;;20.90;75.40;;;;;;4981191;28;20116;-75
2022/04/12 11:52:14;;;;;;;12.00;7.47;;;20.90;72.50;;;;;;4985708;28;20048;-74
2022/04/12 11:54:41;;;;;;;14.10;7.63;;;21.20;71.70;;;;;;4981738;28;20044;-75
2022/04/12 11:57:13;;;;;;;11.07;7.25;;;21.00;67.90;;;;;;5003635;28;20114;-75
2022/04/12 11:59:54;;;;;;;17.65;7.80;;;21.50;74.10;;;;;;4980894;28;20046;-74
2022/04/12 12:02:29;;;;;;;13.38;7.63;;;21.80;65.60;;;;;;4988488;28;20041;-74
2022/04/12 12:04:58;;;;;;;11.75;7.32;;;21.60;67.70;;;;;;4981418;28;20053;-75
2022/04/12 12:07:26;;;;;;;12.13;7.72;;;21.10;67.00;;;;;;4983584;28;20046;-75
2022/04/12 12:10:06;;;;;;;13.73;7.63;;;21.20;67.30;;;;;;4981561;28;20516;-74
2022/04/12 12:12:33;;;;;;;14.05;7.70;;;20.80;67.70;;;;;;4977195;28;20049;-75
2022/04/12 12:15:14;;;;;;;12.35;6.68;;;21.30;68.70;;;;;;4981995;28;20042;-74
2022/04/12 12:17:40;;;;;;;12.98;7.97;;;21.60;70.30;;;;;;4981453;28;20050;-74
2022/04/12 12:20:08;;;;;;;12.70;7.40;;;21.90;69.60;;;;;;4983893;28;20107;-76
2022/04/12 12:22:38;;;;;;;13.38;7.75;;;21.80;66.40;;;;;;4993713;28;20139;-75
2022/04/12 12:25:04;;;;;;;11.27;7.28;;;21.40;65.80;;;;;;4971485;28;20060;-75
2022/04/12 12:27:33;;;;;;;12.40;7.72;;;21.90;67.20;;;;;;4975849;28;20122;-74
2022/04/12 12:30:08;;;;;;;15.13;8.63;;;22.20;68.90;;;;;;4971048;28;20137;-74
2022/04/12 12:32:38;;;;;;;12.95;7.45;;;21.40;66.60;;;;;;4966373;28;20376;-75
2022/04/12 12:35:07;;;;;;;12.57;7.00;;;21.90;67.00;;;;;;4966664;28;20080;-74
2022/04/12 12:37:33;;;;;;;13.23;7.65;;;21.70;65.20;;;;;;4963317;28;20049;-75
2022/04/12 12:39:59;;;;;;;15.18;8.13;;;22.00;68.30;;;;;;4966088;28;20061;-75
2022/04/12 12:42:37;;;;;;;14.48;7.90;;;22.20;66.10;;;;;;4963813;28;20049;-75
2022/04/12 12:45:14;;;;;;;13.77;7.47;;;22.20;66.70;;;;;;4966167;28;20041;-75